Queen Valley, Arizona
Current Conditions -  °F | °C
As of 2:47 PM on Sunday 23 Nov 2014 (Local Time) from KIWA Reporting Station
Few Clouds Few Clouds  
Wind Chill: 70°   Ceiling: Unl
Heat Index: 70°   Visibility: 45mi
Dew Point: 25°   Wind: 9mph
Humidity: 18%   Direction: 280°W
Pressure: 30.02"   Gusts: NA
Location:  33.2782°N, 111.363°W
Report Text: KIWA 232147Z 28008KT 45SM FEW150 21/M04 A3002
Loading
Personal Weather Stations






























Interactive Weather Map New forecast layout! Learn more

10-Day Weather Forecast

Advertisements
Track Severe Weather on mobile